Worthington, Ohio
Current Conditions -  °F | °C
As of 10:53 PM on Saturday 22 Nov 2014 (Local Time) from KOSU Reporting Station
Overcast Overcast  
Wind Chill: 45°   Ceiling: 6000
Heat Index: 49°   Visibility: 10mi
Dew Point: 34°   Wind: 8mph
Humidity: 56%   Direction: 180°S
Pressure: 30.06"   Gusts: NA
Location:  40.1°N, 83.02°W
Report Text: KOSU 230353Z 18007KT 10SM OVC060 09/01 A3006 RMK AO2 SLP183 T00940011
Loading
Personal Weather Stations






























Interactive Weather Map New forecast layout! Learn more

10-Day Weather Forecast

Advertisements
Track Severe Weather on mobile